Latest Weather Observations for Cleve Airport

IDS60801

Issued at 5:01 am CST Thursday 25 May 2017 (issued every 30 minutes, with the page automatically refreshed every 10 minutes)

About weather observations | Map of weather stations | Latest weather observations for SA | Other Formats
Station Details ID: 018116 Name: CLEVE AERODROME Lat: -33.71 Lon: 136.50 Height: 175.0 m
Data from the previous 72 hours. | See also: Recent months at Cleve Airport
Date/Time
CST
Temp
°C
App
Temp
°C
Dew
Point
°C
Rel
Hum
%
Delta-T
°C
Wind Press
QNH
hPa
Press
MSL
hPa
Rain since
9am
mm
Dir  Spd
km/h
Gust
km/h
Spd
kts
Gust
kts
25/05:00am 12.2 8.5 9.4 83 1.4 NNW 19 22 10 12 1021.3 1021.2 0.0
25/04:30am 12.4 9.6 10.0 85 1.2 NNW 15 20 8 11 1021.1 1020.9 0.0
25/04:00am 12.0 9.5 9.6 85 1.2 NNW 13 19 7 10 1021.2 1021.0 0.0
25/03:30am 11.9 8.6 9.6 86 1.2 NNW 17 20 9 11 1021.3 1021.2 0.0
25/03:00am 11.1 8.5 9.4 89 0.9 NNW 13 17 7 9 1021.4 1021.3 0.0
25/02:30am 11.4 8.4 9.1 86 1.2 NNW 15 20 8 11 1021.3 1021.2 0.0
25/02:00am 11.6 8.6 9.3 86 1.2 NNW 15 19 8 10 1021.3 1021.2 0.0
25/01:30am 11.6 8.7 9.5 87 1.1 NNW 15 19 8 10 1021.2 1021.0 0.0
25/01:00am 11.6 8.8 9.9 89 0.9 NNW 15 17 8 9 1021.5 1021.4 0.0
25/12:30am 11.9 9.5 10.0 88 1.0 NNW 13 15 7 8 1021.7 1021.6 0.0
25/12:00am 11.7 9.1 9.3 85 1.2 NNW 13 15 7 8 1021.9 1021.8 0.0
 
Date/Time
CST
Temp
°C
App
Temp
°C
Dew
Point
°C
Rel
Hum
%
Delta-T
°C
Wind Press
QNH
hPa
Press
MSL
hPa
Rain since
9am
mm
Dir  Spd
km/h
Gust
km/h
Spd
kts
Gust
kts
24/11:30pm 12.5 10.7 9.3 81 1.6 NW 9 11 5 6 1022.2 1022.1 0.0
24/11:00pm 13.5 11.7 9.6 77 2.0 NW 9 11 5 6 1022.3 1022.2 0.0
24/10:30pm 14.0 12.0 8.8 71 2.6 NW 9 9 5 5 1022.4 1022.3 0.0
24/10:00pm 14.2 12.6 8.8 70 2.8 NW 7 9 4 5 1022.5 1022.4 0.0
24/09:30pm 14.0 11.9 8.4 69 2.8 NW 9 11 5 6 1022.5 1022.4 0.0
24/09:00pm 13.7 12.0 8.3 70 2.7 NW 7 9 4 5 1022.5 1022.4 0.0
24/08:30pm 14.1 13.6 7.9 66 3.1 CALM 0 0 0 0 1022.4 1022.3 0.0
24/08:00pm 15.5 14.0 8.3 62 3.7 WNW 6 9 3 5 1022.3 1022.2 0.0
24/07:30pm 15.8 13.7 8.3 61 3.8 WNW 9 11 5 6 1022.3 1022.2 0.0
24/07:00pm 15.8 13.3 8.3 61 3.8 SW 11 13 6 7 1022.1 1022.0 0.0
24/06:30pm 15.8 14.1 8.5 62 3.7 WSW 7 9 4 5 1021.9 1021.8 0.0
24/06:00pm 15.8 13.8 8.5 62 3.7 W 9 11 5 6 1021.5 1021.4 0.0
24/05:30pm 16.6 13.8 8.6 59 4.1 WSW 13 17 7 9 1021.3 1021.2 0.0
24/05:00pm 18.4 15.0 9.2 55 4.9 WSW 17 26 9 14 1021.0 1020.8 0.0
24/04:30pm 18.5 15.1 9.3 55 4.9 W 17 24 9 13 1021.0 1020.8 0.0
24/04:00pm 19.4 15.6 9.9 54 5.1 WSW 20 28 11 15 1021.0 1020.8 0.0
24/03:30pm 19.5 16.4 10.2 55 5.0 W 17 24 9 13 1020.9 1020.7 0.0
24/03:00pm 19.1 15.6 10.1 56 4.8 W 19 24 10 13 1020.9 1020.7 0.0
24/02:30pm 19.4 16.0 10.4 56 4.9 WSW 19 28 10 15 1020.8 1020.6 0.0
24/02:00pm 20.2 16.6 9.7 51 5.7 W 19 28 10 15 1021.0 1020.8 0.0
24/01:30pm 19.2 14.7 9.9 55 5.0 W 24 33 13 18 1021.3 1021.2 0.0
24/01:00pm 18.3 14.6 10.2 59 4.4 W 20 32 11 17 1021.4 1021.3 0.0
24/12:30pm 18.1 14.7 10.7 62 4.0 W 19 28 10 15 1021.8 1021.7 0.0
24/12:00pm 17.8 15.1 11.8 68 3.3 W 17 24 9 13 1022.0 1021.9 0.0
24/11:30am 17.6 14.3 11.6 68 3.3 W 20 30 11 16 1022.5 1022.4 0.0
24/11:00am 17.0 13.9 12.3 74 2.6 W 20 28 11 15 1022.6 1022.5 0.0
24/10:30am 16.3 13.4 13.0 81 1.8 W 20 32 11 17 1022.6 1022.5 0.0
24/10:00am 15.8 13.1 13.5 86 1.3 WNW 20 30 11 16 1022.4 1022.3 0.0
24/09:30am 14.6 12.1 13.5 93 0.6 WNW 19 28 10 15 1022.4 1022.3 0.0
24/09:00am 14.3 11.8 13.5 95 0.4 WNW 19 24 10 13 1022.2 1022.1 0.2
24/08:30am 13.7 11.4 13.1 96 0.3 WNW 17 24 9 13 1021.9 1021.8 0.2
24/08:00am 12.9 10.5 12.7 99 0.1 WNW 17 20 9 11 1021.6 1021.5 0.2
24/07:30am 12.9 10.0 12.9 100 0.0 WNW 20 28 11 15 1021.2 1021.0 0.2
24/07:00am 12.7 9.7 12.7 100 0.0 WNW 20 26 11 14 1021.1 1020.9 0.2
24/06:30am 12.8 9.9 12.8 100 0.0 WNW 20 28 11 15 1020.7 1020.5 0.2
24/06:00am 13.0 10.3 13.0 100 0.0 WNW 19 26 10 14 1020.7 1020.5 0.0
24/05:30am 12.9 9.9 12.7 99 0.1 WNW 20 28 11 15 1020.5 1020.3 0.0
24/05:00am 12.9 9.9 12.7 99 0.1 WNW 20 28 11 15 1020.2 1020.0 0.0
24/04:30am 13.0 9.7 12.7 98 0.2 WNW 22 32 12 17 1020.0 1019.8 0.0
24/04:00am 13.6 10.4 13.1 97 0.3 WNW 22 30 12 16 1019.9 1019.7 0.0
24/03:30am 13.8 10.2 13.0 95 0.4 WNW 24 35 13 19 1019.7 1019.5 0.0
24/03:00am 13.7 10.5 13.2 97 0.3 WNW 22 33 12 18 1019.7 1019.5 0.0
24/02:30am 13.3 9.6 12.7 96 0.3 WNW 24 32 13 17 1019.6 1019.4 0.0
24/02:00am 13.3 9.9 12.5 95 0.4 WNW 22 32 12 17 1019.5 1019.3 0.0
24/01:30am 13.3 9.9 12.4 94 0.5 WNW 22 32 12 17 1019.4 1019.2 0.0
24/01:00am 13.4 9.1 12.1 92 0.7 WNW 26 33 14 18 1019.2 1019.0 0.0
24/12:30am 13.8 8.4 12.2 90 0.9 WNW 32 44 17 24 1019.1 1018.9 0.0
24/12:00am 13.9 8.4 11.9 88 1.1 WNW 32 44 17 24 1019.0 1018.8 0.0
 
Date/Time
CST
Temp
°C
App
Temp
°C
Dew
Point
°C
Rel
Hum
%
Delta-T
°C
Wind Press
QNH
hPa
Press
MSL
hPa
Rain since
9am
mm
Dir  Spd
km/h
Gust
km/h
Spd
kts
Gust
kts
23/11:30pm 13.6 8.1 11.8 89 1.0 WNW 32 43 17 23 1019.1 1018.9 0.0
23/11:00pm 13.5 8.2 11.2 86 1.2 WNW 30 48 16 26 1019.4 1019.2 0.0
23/10:54pm 13.6 8.7 11.3 86 1.2 WNW 28 48 15 26 1019.4 1019.2 0.0
23/10:30pm 13.3 9.1 11.0 86 1.2 WNW 24 41 13 22 1019.6 1019.4 0.0
23/10:00pm 13.4 9.1 10.8 84 1.4 NW 24 35 13 19 1019.4 1019.2 0.0
23/09:30pm 13.8 9.5 10.6 81 1.7 WNW 24 35 13 19 1019.3 1019.1 0.0
23/09:00pm 13.9 9.5 10.5 80 1.8 WNW 24 37 13 20 1019.1 1018.9 0.0
23/08:30pm 13.9 9.9 10.5 80 1.8 WNW 22 35 12 19 1019.0 1018.8 0.0
23/08:00pm 14.1 10.1 10.3 78 2.0 WNW 22 32 12 17 1018.6 1018.4 0.0
23/07:30pm 14.1 10.4 10.1 77 2.1 WNW 20 30 11 16 1018.4 1018.2 0.0
23/07:00pm 14.3 10.2 10.1 76 2.2 WNW 22 32 12 17 1018.2 1018.0 0.0
23/06:30pm 14.3 10.5 9.9 75 2.3 WNW 20 30 11 16 1017.9 1017.8 0.0
23/06:00pm 14.6 9.7 10.0 74 2.4 WNW 26 37 14 20 1017.7 1017.6 0.0
23/05:30pm 14.9 9.6 9.7 71 2.7 WNW 28 39 15 21 1017.6 1017.5 0.0
23/05:00pm 15.8 11.1 9.2 65 3.4 W 24 37 13 20 1017.1 1017.0 0.0
23/04:30pm 16.2 10.6 8.7 61 3.9 W 28 39 15 21 1017.2 1017.1 0.0
23/04:00pm 15.1 9.9 10.3 73 2.5 W 28 39 15 21 1017.1 1017.0 0.0
23/03:54pm 14.6 9.0 11.4 81 1.7 W 32 50 17 27 1017.2 1017.1 0.0
23/03:30pm 16.7 9.8 8.7 59 4.1 W 35 48 19 26 1016.7 1016.6 0.0
23/03:00pm 17.1 11.4 8.3 56 4.5 W 28 43 15 23 1016.6 1016.5 0.0
23/02:30pm 17.7 11.7 6.9 49 5.4 W 28 39 15 21 1016.3 1016.1 0.0
23/02:00pm 19.1 12.9 6.2 43 6.5 WNW 28 44 15 24 1016.2 1016.0 0.0
23/01:30pm 18.6 11.8 5.1 41 6.6 WNW 30 48 16 26 1016.3 1016.1 0.0
23/01:17pm 18.6 12.3 5.5 42 6.4 WNW 28 46 15 25 1016.6 1016.5 0.0
23/01:00pm 18.2 11.5 5.4 43 6.3 WNW 30 43 16 23 1016.9 1016.8 0.0
23/12:30pm 17.9 10.3 3.8 39 6.7 WNW 33 50 18 27 1017.4 1017.3 0.0
23/12:22pm 18.0 10.4 3.1 37 7.0 W 32 50 17 27 1017.4 1017.3 0.0
23/12:00pm 16.8 10.3 4.5 44 5.8 WNW 28 43 15 23 1017.6 1017.5 0.0
23/11:30am 17.0 11.5 7.6 54 4.8 WNW 26 39 14 21 1017.9 1017.8 0.0
23/11:00am 16.9 12.1 8.8 59 4.2 WNW 24 41 13 22 1018.3 1018.1 0.0
23/10:30am 16.2 12.6 10.5 69 3.0 NW 20 28 11 15 1018.2 1018.0 0.0
23/10:00am 15.1 11.1 10.5 74 2.4 NW 22 28 12 15 1018.2 1018.0 0.0
23/09:30am 14.7 10.7 10.5 76 2.2 NW 22 30 12 16 1018.2 1018.0 0.0
23/09:00am 13.5 10.0 10.3 81 1.7 NNW 19 24 10 13 1018.5 1018.3 0.0
23/08:30am 12.2 8.6 9.9 86 1.2 NNW 19 22 10 12 1018.4 1018.2 0.0
23/08:00am 10.6 7.3 9.5 93 0.6 NNW 17 20 9 11 1018.2 1018.0 0.0
23/07:30am 10.9 7.7 10.0 94 0.5 NNW 17 22 9 12 1017.9 1017.8 0.0
23/07:00am 10.6 7.8 10.0 96 0.3 NNW 15 19 8 10 1017.4 1017.3 0.0
23/06:30am 10.7 8.7 10.2 97 0.3 NNW 11 15 6 8 1017.2 1017.1 0.0
23/06:00am 10.4 7.9 9.8 96 0.3 NNW 13 17 7 9 1016.9 1016.8 0.0
23/05:30am 9.9 7.5 8.7 92 0.6 NNW 11 13 6 7 1016.9 1016.8 0.0
23/05:00am 11.2 8.3 9.8 91 0.7 NW 15 19 8 10 1017.1 1017.0 0.0
23/04:30am 11.0 8.4 9.3 89 0.9 W 13 20 7 11 1016.8 1016.7 0.0
23/04:00am 12.2 9.4 10.1 87 1.1 WNW 15 19 8 10 1016.9 1016.8 0.0
23/03:30am 12.4 9.3 10.3 87 1.1 WNW 17 22 9 12 1016.8 1016.7 0.0
23/03:00am 11.6 9.2 10.2 91 0.7 WNW 13 19 7 10 1017.2 1017.1 0.0
23/02:30am 11.8 8.8 10.5 92 0.7 NW 17 20 9 11 1017.1 1017.0 0.0
23/02:00am 12.0 9.4 10.7 92 0.7 WNW 15 19 8 10 1017.4 1017.3 0.0
23/01:30am 12.4 9.9 11.0 91 0.7 WNW 15 20 8 11 1017.4 1017.3 0.0
23/01:00am 12.5 9.5 10.7 89 0.9 WNW 17 20 9 11 1017.3 1017.2 0.0
23/12:30am 12.6 10.5 11.0 90 0.8 WNW 13 17 7 9 1017.2 1017.1 0.0
23/12:00am 13.3 10.5 11.4 88 1.0 WNW 17 22 9 12 1017.5 1017.4 0.0
 
Date/Time
CST
Temp
°C
App
Temp
°C
Dew
Point
°C
Rel
Hum
%
Delta-T
°C
Wind Press
QNH
hPa
Press
MSL
hPa
Rain since
9am
mm
Dir  Spd
km/h
Gust
km/h
Spd
kts
Gust
kts
22/11:30pm 13.5 10.8 11.6 88 1.0 WNW 17 20 9 11 1017.5 1017.4 0.0
22/11:00pm 13.7 10.9 11.4 86 1.2 WNW 17 24 9 13 1017.4 1017.3 0.0
22/10:30pm 14.0 11.1 11.0 82 1.6 WNW 17 22 9 12 1017.7 1017.6 0.0
22/10:00pm 14.0 11.5 11.0 82 1.6 WNW 15 20 8 11 1017.4 1017.3 0.0
22/09:30pm 14.4 11.4 10.8 79 1.9 WNW 17 22 9 12 1017.3 1017.2 0.0
22/09:00pm 14.8 11.7 10.4 75 2.3 WNW 17 20 9 11 1016.8 1016.7 0.0
22/08:30pm 14.9 11.2 10.3 74 2.4 W 20 28 11 15 1016.3 1016.1 0.0
22/08:00pm 14.9 11.7 10.1 73 2.5 WNW 17 24 9 13 1015.9 1015.7 0.0
22/07:30pm 15.3 11.6 10.1 71 2.7 WNW 20 26 11 14 1015.4 1015.2 0.0
22/07:00pm 15.4 11.7 10.0 70 2.8 WNW 20 26 11 14 1015.1 1014.9 0.0
22/06:30pm 15.4 11.1 10.6 73 2.6 WNW 24 33 13 18 1014.9 1014.7 0.0
22/06:00pm 15.2 11.3 12.2 82 1.6 W 24 32 13 17 1013.8 1013.6 0.0
22/05:30pm 18.0 11.7 9.6 58 4.5 WSW 33 46 18 25 1013.5 1013.3 0.0
22/05:00pm 20.0 13.7 7.4 44 6.5 W 30 43 16 23 1012.6 1012.4 0.0
22/04:30pm 20.9 14.9 8.5 45 6.6 W 30 43 16 23 1012.2 1012.0 0.0
22/04:00pm 22.7 15.6 6.5 35 8.3 W 33 48 18 26 1011.7 1011.6 0.0
22/03:50pm 22.6 15.7 6.4 35 8.3 W 32 50 17 27 1011.6 1011.5 0.0
22/03:30pm 22.7 16.5 7.7 38 7.9 WNW 30 41 16 22 1011.6 1011.5 0.0
22/03:25pm 22.9 15.8 6.2 34 8.6 NW 33 48 18 26 1011.5 1011.4 0.0
22/03:00pm 22.8 14.9 6.1 34 8.6 NW 37 57 20 31 1011.0 1010.8 0.0
22/02:30pm 22.7 13.9 5.6 33 8.7 NW 41 59 22 32 1010.9 1010.7 0.0
22/02:00pm 22.9 14.2 6.2 34 8.6 NNW 41 63 22 34 1010.9 1010.7 0.0
22/01:30pm 22.8 13.2 6.1 34 8.6 NNW 46 70 25 38 1010.6 1010.4 0.0
22/01:00pm 23.1 13.9 6.4 34 8.6 NNW 44 65 24 35 1010.7 1010.5 0.0
22/12:55pm 22.3 13.0 6.1 35 8.3 NNW 44 65 24 35 1010.7 1010.5 0.0
22/12:53pm 22.7 13.7 6.5 35 8.3 NNW 43 61 23 33 1010.8 1010.6 0.0
22/12:30pm 22.0 9.9 6.3 36 8.0 N 59 78 32 42 1010.7 1010.5 0.0
22/12:00pm 21.8 10.3 6.1 36 8.0 N 56 74 30 40 1010.9 1010.7 0.0
22/11:35am 21.5 10.0 6.2 37 7.8 N 56 74 30 40 1011.6 1011.5 0.0
22/11:30am 21.0 9.3 6.2 38 7.5 N 57 74 31 40 1011.6 1011.5 0.0
22/11:06am 20.8 10.6 7.1 41 7.1 N 50 72 27 39 1011.8 1011.7 0.0
22/11:00am 19.5 9.0 7.3 45 6.3 N 52 63 28 34 1011.8 1011.7 0.0
22/10:47am 20.6 10.0 6.9 41 7.0 N 52 70 28 38 1011.9 1011.8 0.0
22/10:30am 19.6 8.6 6.7 43 6.5 N 54 69 29 37 1012.2 1012.0 0.0
22/10:00am 19.4 9.2 6.8 44 6.4 N 50 72 27 39 1012.5 1012.3 0.0
22/09:35am 18.9 7.8 6.4 44 6.3 N 54 72 29 39 1012.5 1012.3 0.0
22/09:30am 19.4 7.8 6.5 43 6.5 N 57 72 31 39 1012.4 1012.2 0.0
22/09:16am 19.4 9.5 6.8 44 6.4 N 48 70 26 38 1012.5 1012.3 0.0
22/09:00am 18.0 8.8 6.5 47 5.7 N 44 57 24 31 1012.7 1012.5 0.0
22/08:30am 17.6 9.4 6.5 48 5.5 N 39 56 21 30 1012.8 1012.6 0.0
22/08:00am 17.6 8.6 6.5 48 5.5 N 43 57 23 31 1012.4 1012.2 0.0
22/07:35am 18.0 9.3 6.2 46 5.9 N 41 63 22 34 1011.1 1010.9 0.0
22/07:30am 18.3 10.0 6.2 45 6.0 N 39 52 21 28 1011.2 1011.0 0.0
22/07:00am 18.0 7.4 7.1 49 5.5 N 52 74 28 40 1011.8 1011.7 0.0
22/06:30am 18.3 8.2 5.8 44 6.2 NNW 48 67 26 36 1013.2 1013.0 0.0
22/06:00am 17.8 7.7 5.7 45 5.9 N 48 67 26 36 1012.1 1011.9 0.0
22/05:46am 17.6 9.2 5.5 45 5.9 NNW 39 57 21 31 1012.3 1012.1 0.0
22/05:30am 17.5 9.1 5.4 45 5.9 NNW 39 50 21 27 1011.9 1011.8 0.0
22/05:28am 17.6 9.9 5.5 45 5.9 NW 35 50 19 27 1011.7 1011.6 0.0
22/05:25am 17.8 10.6 5.7 45 5.9 WNW 33 46 18 25 1012.7 1012.5 0.0
22/05:17am 17.3 7.6 5.6 46 5.7 N 46 65 25 35 1012.6 1012.4 0.0
22/05:02am 17.2 6.7 5.8 47 5.6 N 50 72 27 39 1010.5 1010.3 0.0

Other Formats:

Comma delimited format used in spreadsheet applications
http://www.bom.gov.au/fwo/IDS60801/IDS60801.94662.axf

JavaScript Object Notation format (JSON) in row-major order
http://www.bom.gov.au/fwo/IDS60801/IDS60801.94662.json